createdAt,value
2022-11-24T00:02:49.077Z,4.40
2022-11-24T00:07:54.349Z,4.62
2022-11-24T00:12:59.881Z,4.13
2022-11-24T00:18:04.280Z,4.14
2022-11-24T00:23:10.947Z,4.40
2022-11-24T00:28:16.914Z,4.09
2022-11-24T00:33:21.388Z,3.85
2022-11-24T00:38:26.528Z,3.91
2022-11-24T00:43:32.003Z,3.99
2022-11-24T00:48:37.347Z,4.04
2022-11-24T00:53:42.760Z,4.17
2022-11-24T00:58:48.548Z,4.08
2022-11-24T01:03:54.644Z,4.00
2022-11-24T01:08:59.194Z,3.80
2022-11-24T01:14:04.858Z,3.92
2022-11-24T01:19:09.926Z,3.81
2022-11-24T01:24:14.719Z,4.03
2022-11-24T01:29:20.237Z,3.82
2022-11-24T01:34:25.309Z,3.86
2022-11-24T01:39:31.991Z,3.66
2022-11-24T01:44:37.490Z,3.74
2022-11-24T01:49:46.131Z,3.97
2022-11-24T01:54:54.739Z,3.79
2022-11-24T02:00:07.558Z,3.85
2022-11-24T02:05:25.516Z,3.82
2022-11-24T02:10:31.019Z,3.71
2022-11-24T02:15:38.188Z,3.80
2022-11-24T02:20:42.350Z,3.86
2022-11-24T02:25:57.706Z,3.90
2022-11-24T02:31:04.210Z,3.87
2022-11-24T02:36:09.182Z,3.84
2022-11-24T02:41:20.192Z,3.77
2022-11-24T02:46:25.945Z,3.70
2022-11-24T02:51:30.244Z,3.48
2022-11-24T02:56:34.541Z,3.49
2022-11-24T03:01:40.079Z,3.27
2022-11-24T03:06:44.505Z,3.23
2022-11-24T03:11:50.128Z,3.24
2022-11-24T03:16:55.720Z,3.33
2022-11-24T03:22:01.329Z,3.41
2022-11-24T03:27:05.660Z,3.22
2022-11-24T03:32:12.644Z,3.18
2022-11-24T03:37:18.092Z,2.69
2022-11-24T03:42:22.279Z,3.35
2022-11-24T03:47:27.935Z,3.41
2022-11-24T03:52:32.687Z,3.08
2022-11-24T03:57:36.725Z,3.30
2022-11-24T04:02:42.823Z,3.13
2022-11-24T04:07:47.307Z,3.04
2022-11-24T04:12:51.661Z,3.12
2022-11-24T04:17:58.045Z,3.29
2022-11-24T04:23:02.613Z,2.98
2022-11-24T04:28:06.947Z,3.26
2022-11-24T04:33:14.680Z,2.98
2022-11-24T04:39:22.907Z,2.84
2022-11-24T04:43:42.674Z,3.07
2022-11-24T04:48:48.280Z,2.90
2022-11-24T04:53:52.982Z,3.20
2022-11-24T04:58:57.111Z,3.15
2022-11-24T05:04:02.500Z,3.17
2022-11-24T05:09:07.676Z,3.01
2022-11-24T05:14:12.046Z,2.96
2022-11-24T05:19:18.590Z,2.84
2022-11-24T05:24:22.755Z,3.08
2022-11-24T05:29:27.522Z,2.56
2022-11-24T05:34:33.890Z,2.70
2022-11-24T05:39:38.699Z,3.17
2022-11-24T05:44:42.912Z,3.08
2022-11-24T05:49:48.776Z,2.88
2022-11-24T05:54:52.976Z,2.89
2022-11-24T05:59:58.845Z,3.08
2022-11-24T06:05:05.130Z,2.96
2022-11-24T06:10:09.811Z,3.21
2022-11-24T06:15:14.153Z,3.08
2022-11-24T06:20:19.926Z,3.15
2022-11-24T06:25:23.957Z,2.83
2022-11-24T06:30:28.030Z,2.87
2022-11-24T06:35:33.407Z,3.36
2022-11-24T06:40:38.668Z,3.54
2022-11-24T06:45:42.695Z,5.14
2022-11-24T06:50:50.337Z,6.68
2022-11-24T06:55:55.059Z,7.91
2022-11-24T07:01:00.211Z,8.68
2022-11-24T07:06:06.369Z,9.78
2022-11-24T07:11:12.934Z,10.48
2022-11-24T07:16:18.708Z,10.72
2022-11-24T07:21:29.518Z,10.78
2022-11-24T07:26:37.389Z,12.06
2022-11-24T07:31:42.737Z,11.86
2022-11-24T07:36:48.463Z,12.89
2022-11-24T07:41:52.892Z,13.62
2022-11-24T07:46:57.024Z,13.61
2022-11-24T07:52:02.397Z,13.16
2022-11-24T07:57:07.745Z,13.32
2022-11-24T08:02:15.420Z,13.81
2022-11-24T08:07:21.131Z,14.66
2022-11-24T08:12:28.184Z,14.76
2022-11-24T08:17:32.231Z,14.90
2022-11-24T08:22:39.473Z,15.50
2022-11-24T08:27:44.095Z,16.07
2022-11-24T08:32:48.403Z,16.43
2022-11-24T08:37:53.889Z,16.62
2022-11-24T08:42:59.411Z,15.65
2022-11-24T08:48:03.700Z,14.68
2022-11-24T08:53:09.242Z,14.56
2022-11-24T08:58:13.448Z,14.88
2022-11-24T09:03:18.141Z,15.79
2022-11-24T09:08:24.777Z,15.63
2022-11-24T09:13:29.033Z,15.11
2022-11-24T09:18:34.445Z,14.30
2022-11-24T09:23:41.237Z,12.99
2022-11-24T09:28:47.263Z,12.48
2022-11-24T09:33:51.828Z,11.76
2022-11-24T09:38:59.274Z,11.35
2022-11-24T09:44:11.081Z,10.73
2022-11-24T09:49:24.743Z,9.76
2022-11-24T09:54:32.845Z,9.42
2022-11-24T09:59:37.520Z,9.50
2022-11-24T10:05:09.675Z,9.04
2022-11-24T10:10:24.196Z,8.90
2022-11-24T10:15:39.385Z,8.63
2022-11-24T10:20:53.795Z,8.46
2022-11-24T10:26:01.121Z,8.18
2022-11-24T10:31:18.996Z,7.90
2022-11-24T10:36:31.778Z,7.80
2022-11-24T10:41:46.435Z,7.68
2022-11-24T10:46:52.117Z,7.67
2022-11-24T10:52:07.186Z,7.54
2022-11-24T10:57:29.009Z,7.49
2022-11-24T11:02:38.518Z,7.38
2022-11-24T11:07:42.525Z,7.17
2022-11-24T11:12:48.061Z,7.03
2022-11-24T11:17:57.388Z,6.89
2022-11-24T11:23:04.802Z,6.81
2022-11-24T11:28:24.172Z,6.64
2022-11-24T11:38:54.401Z,6.65
2022-11-24T11:44:08.955Z,6.51
2022-11-24T11:49:13.951Z,6.32
2022-11-24T11:54:30.842Z,6.28
2022-11-24T11:59:59.141Z,6.23
2022-11-24T12:05:12.944Z,6.29
2022-11-24T12:10:31.674Z,6.10
2022-11-24T12:15:42.190Z,6.15
2022-11-24T12:20:58.785Z,6.12
2022-11-24T12:26:10.576Z,6.12
2022-11-24T12:31:22.536Z,6.37
2022-11-24T12:36:42.581Z,6.30
2022-11-24T12:42:00.881Z,6.37
2022-11-24T12:47:17.193Z,6.37
2022-11-24T12:52:27.440Z,6.14
2022-11-24T12:57:36.558Z,6.09
2022-11-24T13:03:01.861Z,5.71
2022-11-24T13:08:06.977Z,5.56
2022-11-24T13:13:12.642Z,5.56
2022-11-24T13:18:47.481Z,5.57
2022-11-24T13:23:58.536Z,5.54
2022-11-24T13:29:13.457Z,5.61
2022-11-24T13:35:03.804Z,5.77
2022-11-24T13:40:45.835Z,5.91
2022-11-24T13:45:55.370Z,5.78
2022-11-24T13:51:24.884Z,6.01
2022-11-24T13:56:32.360Z,5.79
2022-11-24T14:01:42.508Z,5.70
2022-11-24T14:06:54.921Z,5.71
2022-11-24T14:12:06.577Z,5.40
2022-11-24T14:17:22.960Z,5.50
2022-11-24T14:22:35.946Z,5.33
2022-11-24T14:27:40.686Z,5.31
2022-11-24T14:32:55.252Z,5.42
2022-11-24T14:38:04.397Z,5.18
2022-11-24T14:43:21.897Z,5.13
2022-11-24T14:48:28.994Z,4.97
2022-11-24T14:53:37.654Z,4.96
2022-11-24T14:58:42.662Z,4.91
2022-11-24T15:03:47.127Z,4.98
2022-11-24T15:08:53.696Z,4.86
2022-11-24T15:13:59.116Z,4.64
2022-11-24T15:19:04.002Z,4.45
2022-11-24T15:24:20.878Z,4.63
2022-11-24T15:29:25.017Z,4.59
2022-11-24T15:34:28.984Z,4.68
2022-11-24T15:39:34.847Z,4.69
2022-11-24T15:44:41.287Z,4.72
2022-11-24T15:49:46.590Z,4.58
2022-11-24T15:54:58.201Z,4.63
2022-11-24T16:00:02.802Z,4.68
2022-11-24T16:05:17.615Z,4.66
2022-11-24T16:10:28.453Z,4.58
2022-11-24T16:15:32.708Z,4.66
2022-11-24T16:20:37.778Z,4.82
2022-11-24T16:25:43.810Z,4.79
2022-11-24T16:30:50.728Z,4.81
2022-11-24T16:35:56.158Z,4.87
2022-11-24T16:41:03.541Z,4.66
2022-11-24T16:46:20.531Z,4.60
2022-11-24T16:51:29.946Z,4.46
2022-11-24T16:56:38.842Z,4.30
2022-11-24T17:01:46.525Z,4.18
2022-11-24T17:06:53.100Z,4.17
2022-11-24T17:11:58.527Z,4.13
2022-11-24T17:17:05.264Z,3.97
2022-11-24T17:22:09.458Z,3.90
2022-11-24T17:27:15.037Z,3.80
2022-11-24T17:32:19.370Z,3.82
2022-11-24T17:37:24.490Z,3.80
2022-11-24T17:42:30.285Z,3.85
2022-11-24T17:47:34.984Z,3.96
2022-11-24T17:52:38.977Z,3.95
2022-11-24T17:57:44.568Z,3.84
2022-11-24T18:02:48.864Z,3.88
2022-11-24T18:07:54.165Z,3.89
2022-11-24T18:13:00.118Z,3.87
2022-11-24T18:18:04.843Z,3.84
2022-11-24T18:23:09.414Z,3.84
2022-11-24T18:28:15.952Z,3.83
2022-11-24T18:33:21.880Z,3.86
2022-11-24T18:38:26.415Z,3.83
2022-11-24T18:43:32.594Z,3.83
2022-11-24T18:48:37.130Z,3.87
2022-11-24T18:53:42.530Z,3.86
2022-11-24T18:58:47.951Z,3.87
2022-11-24T19:03:54.356Z,3.91
2022-11-24T19:09:03.004Z,3.92
2022-11-24T19:14:13.115Z,3.86
2022-11-24T19:19:17.622Z,3.89
2022-11-24T19:24:25.737Z,3.92
2022-11-24T19:29:31.203Z,4.08
2022-11-24T19:34:35.421Z,4.11
2022-11-24T19:39:39.556Z,4.09
2022-11-24T19:44:45.066Z,4.03
2022-11-24T19:49:49.215Z,4.10
2022-11-24T19:54:53.226Z,4.02
2022-11-24T20:00:01.423Z,4.23
2022-11-24T20:05:10.607Z,4.16
2022-11-24T20:10:15.626Z,4.26
2022-11-24T20:15:21.216Z,4.22
2022-11-24T20:20:25.748Z,4.30
2022-11-24T20:25:29.780Z,4.11
2022-11-24T20:30:35.851Z,4.07
2022-11-24T20:35:41.142Z,4.13
2022-11-24T20:40:45.118Z,4.12
2022-11-24T20:45:50.627Z,4.18
2022-11-24T20:50:54.651Z,4.08
2022-11-24T20:56:05.889Z,3.96
2022-11-24T21:01:15.222Z,3.96
2022-11-24T21:06:19.267Z,4.05
2022-11-24T21:11:25.498Z,4.00
2022-11-24T21:16:32.938Z,4.02
2022-11-24T21:21:38.659Z,4.06
2022-11-24T21:26:44.367Z,4.06
2022-11-24T21:31:50.602Z,3.91
2022-11-24T21:36:54.654Z,3.92
2022-11-24T21:41:59.890Z,3.94
2022-11-24T21:47:05.380Z,3.99
2022-11-24T21:52:11.825Z,4.13
2022-11-24T21:57:15.762Z,4.07
2022-11-24T22:02:21.846Z,4.13
2022-11-24T22:07:25.944Z,4.11
2022-11-24T22:12:30.547Z,4.15
2022-11-24T22:17:37.981Z,4.11
2022-11-24T22:22:42.488Z,4.12
2022-11-24T22:27:46.469Z,4.04
2022-11-24T22:32:52.410Z,4.09
2022-11-24T22:37:57.872Z,4.10
2022-11-24T22:43:01.991Z,4.04
2022-11-24T22:48:08.022Z,4.08
2022-11-24T22:53:12.046Z,4.06
2022-11-24T22:58:16.328Z,4.05
2022-11-24T23:03:21.788Z,4.07
2022-11-24T23:08:26.077Z,4.00
2022-11-24T23:13:30.366Z,3.98
2022-11-24T23:18:36.718Z,4.15
2022-11-24T23:23:41.361Z,4.04
2022-11-24T23:28:46.718Z,4.14
2022-11-24T23:33:52.116Z,4.06
2022-11-24T23:38:57.657Z,3.98
2022-11-24T23:44:01.928Z,4.07
2022-11-24T23:49:07.447Z,3.96
2022-11-24T23:54:11.486Z,4.06
2022-11-24T23:59:17.361Z,4.13
